Time;durP1;ratioP1;P1;durP2;ratioP2;P2;SDS_P1;SDS_P2;PMS_P1;PMS_P2;Temp;Humidity;BMP_temperature;BMP_pressure;BME280_temperature;BME280_humidity;BME280_pressure;Samples;Min_cycle;Max_cycle;Signal;HPM_P1;HPM_P2
2023/01/23 04:36:03;;;;;;;34.40;17.40;;;;;;;3.17;100.00;102156.79;107414;1292;548236;-61
2023/01/23 04:38:31;;;;;;;39.20;18.30;;;;;;;6.38;100.00;102144.57;107792;1292;23694;-60
2023/01/23 04:40:56;;;;;;;39.00;19.80;;;;;;;6.97;97.99;102144.03;107797;1294;22071;-62
2023/01/23 04:43:22;;;;;;;37.60;19.80;;;;;;;7.26;94.54;102144.54;107727;1294;22028;-61
2023/01/23 04:45:49;;;;;;;30.50;17.60;;;;;;;7.48;92.21;102149.55;107820;1294;22007;-61
2023/01/23 04:48:18;;;;;;;27.70;16.50;;;;;;;7.63;90.15;102151.23;107267;1290;929321;-63
2023/01/23 04:50:43;;;;;;;25.60;13.10;;;;;;;7.72;88.67;102149.52;108040;1290;22000;-69
2023/01/23 04:53:10;;;;;;;24.30;12.70;;;;;;;7.80;87.77;102152.04;107955;1289;22458;-69
2023/01/23 04:55:36;;;;;;;17.90;11.50;;;;;;;7.89;87.01;102154.36;107894;1291;21978;-63
2023/01/23 04:58:02;;;;;;;18.20;10.30;;;;;;;7.94;86.00;102155.90;107987;1290;23327;-61
2023/01/23 05:00:28;;;;;;;21.70;9.90;;;;;;;8.00;85.65;102155.87;107958;1290;21981;-62
2023/01/23 05:02:54;;;;;;;16.70;9.40;;;;;;;8.07;85.04;102154.14;107737;1290;22008;-71
2023/01/23 05:05:20;;;;;;;20.80;9.40;;;;;;;8.13;84.51;102152.90;107712;1290;21994;-62
2023/01/23 05:07:46;;;;;;;17.30;10.20;;;;;;;8.18;83.96;102155.30;105609;1290;1003160;-69
2023/01/23 05:10:12;;;;;;;19.70;9.40;;;;;;;8.22;83.37;102153.48;107807;1290;21986;-70
2023/01/23 05:12:38;;;;;;;18.10;11.00;;;;;;;8.23;82.64;102151.22;107981;1290;21995;-62
2023/01/23 05:15:06;;;;;;;16.80;9.30;;;;;;;8.33;81.94;102149.04;107844;1290;21996;-70
2023/01/23 05:17:32;;;;;;;16.60;9.30;;;;;;;8.40;80.96;102143.25;108135;1290;21995;-70
2023/01/23 05:19:58;;;;;;;16.50;8.60;;;;;;;8.41;80.52;102148.52;107800;1290;21984;-62
2023/01/23 05:22:24;;;;;;;18.20;10.30;;;;;;;8.44;80.59;102149.48;107751;1290;22001;-62
2023/01/23 05:24:50;;;;;;;17.00;8.70;;;;;;;8.48;80.01;102156.42;107833;1290;21986;-70
2023/01/23 05:27:16;;;;;;;19.60;9.40;;;;;;;8.51;79.97;102155.29;107807;1287;21993;-70
2023/01/23 05:29:42;;;;;;;17.90;9.80;;;;;;;8.52;80.20;102155.86;107808;1279;21998;-63
2023/01/23 05:32:07;;;;;;;23.90;10.00;;;;;;;8.56;80.03;102162.94;107909;1290;22023;-66
2023/01/23 05:34:33;;;;;;;25.30;10.40;;;;;;;8.59;79.33;102163.38;107868;1290;23679;-63
2023/01/23 05:36:59;;;;;;;20.70;9.90;;;;;;;8.59;79.10;102166.52;107879;1290;22033;-65
2023/01/23 05:39:24;;;;;;;23.90;10.70;;;;;;;8.60;78.78;102175.30;107820;1289;22027;-63
2023/01/23 05:41:50;;;;;;;21.50;10.20;;;;;;;8.59;78.36;102179.30;107930;1283;22011;-63
2023/01/23 05:44:16;;;;;;;25.20;10.20;;;;;;;8.58;78.12;102184.86;107845;1289;21989;-63
2023/01/23 05:46:41;;;;;;;24.10;12.10;;;;;;;8.59;78.16;102189.44;107929;1289;21987;-65
2023/01/23 05:49:07;;;;;;;28.40;10.50;;;;;;;8.62;78.12;102192.48;107817;1289;22024;-70
2023/01/23 05:51:33;;;;;;;28.00;11.80;;;;;;;8.63;78.52;102194.08;107848;1289;22545;-63
2023/01/23 05:53:59;;;;;;;21.90;10.50;;;;;;;8.69;78.49;102200.33;107812;1289;21997;-65
2023/01/23 05:56:26;;;;;;;27.00;11.50;;;;;;;8.72;78.19;102201.30;107824;1288;22072;-63
2023/01/23 05:58:52;;;;;;;27.90;11.80;;;;;;;8.72;78.00;102202.87;107774;1290;22003;-64
2023/01/23 06:01:19;;;;;;;23.00;11.20;;;;;;;8.73;77.92;102206.41;107827;1289;23723;-63
2023/01/23 06:03:44;;;;;;;18.80;9.60;;;;;;;8.74;77.59;102207.11;107963;1289;21992;-63
2023/01/23 06:06:10;;;;;;;19.10;11.20;;;;;;;8.74;77.43;102211.14;107804;1289;21998;-65
2023/01/23 06:08:36;;;;;;;23.90;11.90;;;;;;;8.72;77.27;102213.02;107805;1289;21992;-63
2023/01/23 06:11:02;;;;;;;20.40;10.90;;;;;;;8.69;77.07;102211.20;107869;1285;21994;-64
2023/01/23 06:13:28;;;;;;;17.90;9.10;;;;;;;8.68;76.97;102215.91;107865;1289;21986;-63
2023/01/23 06:15:57;;;;;;;16.20;8.90;;;;;;;8.68;76.99;102218.54;107869;1289;21997;-72
2023/01/23 06:18:23;;;;;;;17.60;9.40;;;;;;;8.68;77.03;102219.92;107797;1289;23072;-62
2023/01/23 06:20:49;;;;;;;14.00;8.60;;;;;;;8.69;76.71;102218.02;107806;1289;21961;-71
2023/01/23 06:23:17;;;;;;;19.70;8.20;;;;;;;8.67;76.30;102216.40;109160;1289;22940;-62
2023/01/23 06:25:43;;;;;;;15.30;7.80;;;;;;;8.64;76.10;102215.27;107832;1289;22014;-63
2023/01/23 06:28:08;;;;;;;15.50;8.50;;;;;;;8.61;75.89;102219.58;107835;1289;21989;-70
2023/01/23 06:30:34;;;;;;;17.10;8.50;;;;;;;8.60;75.79;102220.61;107842;1289;23093;-70
2023/01/23 06:33:00;;;;;;;14.30;8.00;;;;;;;8.60;75.75;102219.20;107790;1289;23637;-70
2023/01/23 06:35:26;;;;;;;14.80;7.70;;;;;;;8.58;75.68;102226.17;107863;1289;21991;-69
2023/01/23 06:37:51;;;;;;;12.90;6.50;;;;;;;8.57;75.61;102224.21;107918;1289;22005;-62
2023/01/23 06:40:17;;;;;;;11.60;6.90;;;;;;;8.58;75.50;102216.00;107862;1289;22002;-71
2023/01/23 06:42:44;;;;;;;12.80;7.80;;;;;;;8.58;75.35;102216.19;107797;1289;21996;-62
2023/01/23 06:45:10;;;;;;;13.50;7.70;;;;;;;8.55;74.81;102227.66;107744;1289;21990;-70
2023/01/23 06:47:36;;;;;;;16.60;8.80;;;;;;;8.56;74.99;102233.44;107968;1289;21995;-70
2023/01/23 06:50:02;;;;;;;14.50;8.50;;;;;;;8.57;75.28;102235.23;107785;1289;21992;-70
2023/01/23 06:52:28;;;;;;;13.00;7.80;;;;;;;8.58;75.54;102238.77;107749;1289;23746;-70
2023/01/23 06:54:54;;;;;;;15.90;8.40;;;;;;;8.58;75.24;102238.23;107045;1279;1002263;-70
2023/01/23 06:57:19;;;;;;;16.80;7.60;;;;;;;8.59;74.70;102242.46;107787;1289;21955;-70
2023/01/23 06:59:45;;;;;;;14.80;8.10;;;;;;;8.58;74.73;102245.42;107758;1289;21992;-62
2023/01/23 13:05:33;;;;;;;26.80;15.00;;;;;;;3.76;100.00;102238.19;107292;1289;548656;-63
2023/01/23 13:08:25;;;;;;;27.50;15.60;;;;;;;7.09;98.88;102217.32;107447;1295;22004;-68
2023/01/23 13:13:45;;;;;;;24.10;14.00;;;;;;;8.03;88.79;102220.83;107791;1294;22001;-69
2023/01/23 13:16:16;;;;;;;21.10;12.20;;;;;;;8.22;87.58;102224.48;107418;1294;21993;-64
2023/01/23 13:22:04;;;;;;;19.40;10.90;;;;;;;8.38;85.10;102224.55;107834;1292;23623;-71
2023/01/23 13:27:57;;;;;;;20.70;9.80;;;;;;;8.70;83.46;102222.23;107813;1291;21997;-64
2023/01/23 13:30:25;;;;;;;18.40;10.10;;;;;;;8.85;82.81;102221.39;107920;1291;24379;-64
2023/01/23 13:32:59;;;;;;;20.80;9.70;;;;;;;8.95;82.01;102219.89;107843;1291;22001;-69
2023/01/23 13:35:46;;;;;;;15.40;9.20;;;;;;;9.03;81.37;102219.19;107830;1291;22036;-64
2023/01/23 13:38:20;;;;;;;19.20;10.80;;;;;;;9.11;81.01;102215.16;107907;1291;21995;-64
2023/01/23 13:41:07;;;;;;;20.30;11.50;;;;;;;9.16;79.97;102211.63;107779;1290;22017;-65
2023/01/23 13:43:48;;;;;;;21.10;10.70;;;;;;;9.16;79.21;102210.55;107799;1279;21997;-65
2023/01/23 13:46:36;;;;;;;20.80;11.70;;;;;;;9.17;78.87;102214.42;107893;1292;22073;-70
2023/01/23 13:49:50;;;;;;;22.40;11.30;;;;;;;9.20;78.88;102213.81;107712;1291;22027;-69
2023/01/23 13:58:14;;;;;;;19.80;10.90;;;;;;;9.20;77.26;102209.95;107773;1292;21998;-70
2023/01/23 14:00:42;;;;;;;21.10;11.70;;;;;;;9.18;76.95;102215.16;107880;1291;23138;-69
2023/01/23 14:06:03;;;;;;;18.70;10.40;;;;;;;9.20;76.91;102218.88;107840;1289;23054;-70
2023/01/23 14:08:29;;;;;;;33.20;18.30;;;;;;;9.20;76.52;102219.93;107931;1290;21988;-69
2023/01/23 14:10:56;;;;;;;40.40;20.00;;;;;;;9.21;76.47;102218.13;107772;1288;22000;-63
2023/01/23 14:13:23;;;;;;;100.00;59.30;;;;;;;9.21;75.89;102217.52;107951;1290;21997;-70
2023/01/23 14:16:08;;;;;;;76.60;43.70;;;;;;;9.20;75.66;102217.30;107845;1290;22000;-64
2023/01/23 14:18:58;;;;;;;65.50;39.70;;;;;;;9.17;75.05;102222.84;107876;1290;21995;-70
2023/01/23 14:21:25;;;;;;;33.60;23.80;;;;;;;9.14;75.25;102222.08;107977;1290;21997;-68
2023/01/23 14:23:52;;;;;;;29.60;18.30;;;;;;;9.05;75.57;102220.98;107916;1290;22186;-69
2023/01/23 14:26:23;;;;;;;25.00;15.10;;;;;;;8.99;75.02;102220.49;107945;1280;22123;-62
2023/01/23 14:28:56;;;;;;;25.10;16.50;;;;;;;8.87;75.01;102223.71;107771;1290;23755;-68
2023/01/23 14:31:27;;;;;;;29.70;21.40;;;;;;;8.73;75.29;102228.82;107875;1290;22084;-70
2023/01/23 14:33:59;;;;;;;;;;;;;;;8.77;75.56;102225.75;107842;1290;21979;-63
2023/01/23 14:36:25;;;;;;;21.70;14.10;;;;;;;8.83;76.15;102223.97;107847;1290;23756;-69
2023/01/23 14:38:50;;;;;;;28.40;14.50;;;;;;;8.88;76.07;102223.56;107810;1290;22031;-69
2023/01/23 14:41:16;;;;;;;25.70;12.70;;;;;;;8.89;76.25;102225.86;107948;1290;22005;-69
2023/01/23 14:43:42;;;;;;;23.50;12.30;;;;;;;8.92;76.32;102221.73;107975;1287;21996;-64
2023/01/23 14:46:18;;;;;;;27.40;11.50;;;;;;;8.94;75.95;102224.23;107967;1287;22746;-69
2023/01/23 14:48:47;;;;;;;33.90;11.20;;;;;;;8.93;75.69;102223.14;107875;1290;22006;-70
2023/01/23 14:51:22;;;;;;;20.60;11.20;;;;;;;8.95;75.97;102219.88;108056;1290;22033;-64
2023/01/23 14:53:54;;;;;;;30.40;11.90;;;;;;;8.97;75.77;102222.56;107959;1286;23968;-70
2023/01/23 14:56:22;;;;;;;27.60;14.40;;;;;;;8.98;75.10;102219.42;107821;1290;22547;-64
2023/01/23 14:58:48;;;;;;;24.60;13.50;;;;;;;8.95;75.25;102217.96;107887;1290;23762;-69
2023/01/23 15:01:13;;;;;;;25.60;12.30;;;;;;;8.94;75.32;102217.06;107795;1290;21992;-64
2023/01/23 15:03:42;;;;;;;26.10;11.20;;;;;;;8.92;75.05;102218.77;107011;1289;1002508;-64
2023/01/23 15:06:29;;;;;;;20.00;10.50;;;;;;;8.93;75.06;102219.14;107989;1289;21983;-64
2023/01/23 15:09:03;;;;;;;28.40;13.00;;;;;;;8.90;75.00;102223.27;107829;1290;22091;-64
2023/01/23 15:11:32;;;;;;;22.10;11.40;;;;;;;8.88;75.01;102229.34;107863;1290;21982;-64
2023/01/23 15:14:00;;;;;;;24.20;12.60;;;;;;;8.87;74.88;102226.69;107925;1287;21990;-64
2023/01/23 15:16:36;;;;;;;24.70;14.20;;;;;;;8.86;74.71;102225.94;107814;1289;21994;-70
2023/01/23 15:19:19;;;;;;;23.50;14.40;;;;;;;8.84;74.52;102226.98;107758;1289;23055;-64
2023/01/23 15:21:45;;;;;;;24.90;13.30;;;;;;;8.80;74.43;102229.85;107893;1289;22004;-65
2023/01/23 15:24:11;;;;;;;24.50;14.40;;;;;;;8.74;74.61;102232.17;107831;1290;21989;-69
2023/01/23 15:26:38;;;;;;;25.70;12.60;;;;;;;8.75;74.19;102234.10;108005;1289;22012;-64
2023/01/23 15:29:08;;;;;;;26.00;13.20;;;;;;;8.75;74.50;102235.35;107886;1290;22005;-64
2023/01/23 15:31:37;;;;;;;24.20;14.30;;;;;;;8.76;74.53;102235.37;108019;1287;21994;-69
2023/01/23 15:34:15;;;;;;;30.20;16.70;;;;;;;8.76;74.21;102236.41;107906;1289;22054;-70
2023/01/23 15:37:01;;;;;;;26.70;16.80;;;;;;;8.77;74.01;102242.04;107853;1290;23728;-69
2023/01/23 15:39:38;;;;;;;580.70;367.20;;;;;;;8.78;73.88;102245.55;108021;1290;22003;-70
2023/01/23 15:42:32;;;;;;;175.30;96.30;;;;;;;8.86;75.54;102249.78;108100;1289;23021;-62
2023/01/23 15:45:00;;;;;;;51.30;29.90;;;;;;;8.96;74.65;102256.50;108030;1289;22927;-69
2023/01/23 15:47:30;;;;;;;36.80;21.20;;;;;;;8.89;73.16;102257.55;107954;1287;22004;-63
2023/01/23 15:50:02;;;;;;;24.90;15.80;;;;;;;8.84;72.53;102260.41;108021;1289;21998;-63
2023/01/23 15:52:44;;;;;;;22.80;14.20;;;;;;;8.79;71.97;102260.27;107908;1290;23631;-62
2023/01/23 15:55:11;;;;;;;32.10;17.60;;;;;;;8.68;71.56;102257.35;107913;1289;21999;-63
2023/01/23 15:57:38;;;;;;;35.50;18.80;;;;;;;8.63;71.82;102259.34;107751;1290;23122;-62
2023/01/23 16:00:15;;;;;;;27.70;15.90;;;;;;;8.56;71.26;102260.05;107893;1289;21992;-69
2023/01/23 22:05:43;;;;;;;23.40;13.70;;;;;;;3.02;100.00;102327.23;107404;1293;548627;-61
2023/01/23 22:08:13;;;;;;;31.90;18.30;;;;;;;6.39;100.00;102306.23;107449;1295;22046;-69
2023/01/23 22:10:39;;;;;;;28.60;17.10;;;;;;;6.91;98.78;102304.57;107822;1294;22002;-68
2023/01/23 22:13:05;;;;;;;41.70;22.00;;;;;;;7.07;97.27;102302.84;109868;1293;21939;-63
2023/01/23 22:15:30;;;;;;;30.60;17.70;;;;;;;7.23;95.48;102298.13;109884;1293;21897;-70
2023/01/23 22:17:58;;;;;;;22.60;14.90;;;;;;;7.27;94.77;102299.64;108358;1291;339490;-70
2023/01/23 22:20:23;;;;;;;22.00;14.00;;;;;;;7.17;95.95;102299.85;108028;1280;21991;-69
2023/01/23 22:22:49;;;;;;;19.80;12.20;;;;;;;7.19;96.13;102296.59;107168;1291;1003136;-69
2023/01/23 22:25:15;;;;;;;18.20;11.50;;;;;;;7.30;95.37;102296.41;107992;1290;21995;-70
2023/01/23 22:27:40;;;;;;;14.10;9.50;;;;;;;7.36;94.97;102295.89;107910;1277;21993;-62
2023/01/23 22:30:09;;;;;;;15.90;9.50;;;;;;;7.43;94.51;102295.08;107894;1290;22007;-63
2023/01/23 22:32:35;;;;;;;19.50;9.50;;;;;;;7.48;93.42;102293.66;107958;1290;22077;-62
2023/01/23 22:35:01;;;;;;;14.40;8.40;;;;;;;7.59;91.91;102293.66;107859;1277;22002;-62
2023/01/23 22:37:28;;;;;;;14.70;9.00;;;;;;;7.67;91.06;102292.70;107710;1281;21994;-71
2023/01/23 22:39:53;;;;;;;12.20;8.00;;;;;;;7.72;90.22;102292.84;107737;1290;21996;-69
2023/01/23 22:42:20;;;;;;;13.70;8.10;;;;;;;7.77;89.80;102292.80;107673;1288;21998;-70
2023/01/23 22:44:45;;;;;;;17.40;9.90;;;;;;;7.80;89.43;102292.89;107869;1290;22074;-70
2023/01/23 22:47:11;;;;;;;18.60;9.70;;;;;;;7.81;88.79;102295.01;107706;1290;21995;-69
2023/01/23 22:49:37;;;;;;;14.30;8.50;;;;;;;7.80;88.16;102292.88;107741;1290;21993;-62
2023/01/23 22:52:04;;;;;;;13.20;8.30;;;;;;;7.80;87.63;102290.07;107704;1290;21999;-69
2023/01/23 22:54:29;;;;;;;15.60;9.40;;;;;;;7.80;87.30;102290.77;107779;1290;21999;-69
2023/01/23 22:56:55;;;;;;;13.90;8.30;;;;;;;7.81;87.37;102289.94;107700;1283;23648;-67
2023/01/23 22:59:22;;;;;;;13.70;8.60;;;;;;;7.84;87.25;102290.37;107694;1290;22003;-61
2023/01/23 23:01:48;;;;;;;14.70;8.40;;;;;;;7.86;86.82;102287.83;107814;1290;22002;-70
2023/01/23 23:04:14;;;;;;;13.30;8.20;;;;;;;7.88;87.07;102292.59;107694;1283;22000;-69
2023/01/23 23:06:40;;;;;;;13.70;8.80;;;;;;;7.99;88.45;102291.53;107690;1290;22003;-63
2023/01/23 23:09:06;;;;;;;15.20;8.70;;;;;;;8.03;87.08;102291.44;107761;1290;22342;-62
2023/01/23 23:11:32;;;;;;;12.30;7.70;;;;;;;8.00;85.94;102287.70;107657;1290;21995;-69
2023/01/23 23:13:57;;;;;;;15.10;7.70;;;;;;;7.96;85.37;102288.80;107715;1290;22718;-70
2023/01/23 23:16:25;;;;;;;16.50;7.60;;;;;;;7.92;84.61;102292.73;107716;1290;22000;-62
2023/01/23 23:18:52;;;;;;;17.60;7.90;;;;;;;7.87;84.36;102294.16;107724;1286;22006;-62
2023/01/23 23:21:22;;;;;;;11.10;7.30;;;;;;;7.87;84.52;102293.44;107706;1287;22305;-62
2023/01/23 23:23:48;;;;;;;13.00;6.20;;;;;;;7.87;84.61;102292.39;107679;1290;21998;-69
2023/01/23 23:26:14;;;;;;;14.80;6.90;;;;;;;7.89;84.98;102292.98;107684;1290;22006;-69
2023/01/23 23:28:41;;;;;;;11.70;7.60;;;;;;;7.90;84.30;102290.38;107706;1290;21993;-61
2023/01/23 23:31:07;;;;;;;11.80;7.40;;;;;;;7.87;83.73;102296.76;107642;1290;22012;-68
2023/01/23 23:33:33;;;;;;;11.60;6.80;;;;;;;7.82;83.17;102298.00;107741;1290;23194;-61
2023/01/23 23:35:58;;;;;;;14.20;7.20;;;;;;;7.77;82.92;102298.56;107695;1290;22037;-69
2023/01/23 23:38:24;;;;;;;10.40;6.40;;;;;;;7.74;83.01;102297.42;107775;1290;21996;-61
2023/01/23 23:40:54;;;;;;;10.30;6.20;;;;;;;7.73;83.12;102296.88;107689;1290;21991;-64
2023/01/23 23:43:20;;;;;;;;;;;;;;;7.75;83.07;102298.84;107738;1291;21987;-62
2023/01/23 23:45:50;;;;;;;11.40;5.50;;;;;;;7.76;83.18;102296.59;107688;1286;21997;-69
2023/01/23 23:48:15;;;;;;;9.90;5.70;;;;;;;7.75;83.10;102295.70;107859;1290;21993;-69
2023/01/23 23:50:42;;;;;;;10.60;5.90;;;;;;;7.76;82.70;102297.14;107839;1290;22010;-69
2023/01/23 23:53:08;;;;;;;15.60;6.80;;;;;;;7.75;82.32;102299.73;107780;1290;22014;-69
2023/01/23 23:55:33;;;;;;;10.60;6.30;;;;;;;7.75;82.04;102299.53;107672;1290;21995;-61
2023/01/23 23:57:59;;;;;;;10.10;6.60;;;;;;;7.72;82.23;102301.75;107661;1286;22164;-69
